sensor_id;sensor_type;location;lat;lon;timestamp;P1;durP1;ratioP1;P2;durP2;ratioP2
8652;SDS011;4364;52.426;9.424;2022-12-18T00:01:15;32.83;;;19.57;;
8652;SDS011;4364;52.426;9.424;2022-12-18T00:03:42;34.90;;;19.30;;
8652;SDS011;4364;52.426;9.424;2022-12-18T00:06:10;39.03;;;19.00;;
8652;SDS011;4364;52.426;9.424;2022-12-18T00:08:37;34.83;;;18.20;;
8652;SDS011;4364;52.426;9.424;2022-12-18T00:11:05;34.40;;;18.13;;
8652;SDS011;4364;52.426;9.424;2022-12-18T00:13:33;33.07;;;18.10;;
8652;SDS011;4364;52.426;9.424;2022-12-18T00:16:03;35.03;;;19.03;;
8652;SDS011;4364;52.426;9.424;2022-12-18T00:18:32;42.10;;;20.43;;
8652;SDS011;4364;52.426;9.424;2022-12-18T00:20:59;38.80;;;20.70;;
8652;SDS011;4364;52.426;9.424;2022-12-18T00:23:27;37.03;;;19.27;;
8652;SDS011;4364;52.426;9.424;2022-12-18T00:25:58;38.13;;;20.07;;
8652;SDS011;4364;52.426;9.424;2022-12-18T00:28:26;41.77;;;20.07;;
8652;SDS011;4364;52.426;9.424;2022-12-18T00:31:00;40.13;;;20.13;;
8652;SDS011;4364;52.426;9.424;2022-12-18T00:33:28;37.97;;;19.53;;
8652;SDS011;4364;52.426;9.424;2022-12-18T00:35:59;38.70;;;18.87;;
8652;SDS011;4364;52.426;9.424;2022-12-18T00:38:31;34.60;;;18.83;;
8652;SDS011;4364;52.426;9.424;2022-12-18T00:40:58;35.40;;;19.10;;
8652;SDS011;4364;52.426;9.424;2022-12-18T00:43:24;31.97;;;17.33;;
8652;SDS011;4364;52.426;9.424;2022-12-18T00:45:51;31.43;;;16.83;;
8652;SDS011;4364;52.426;9.424;2022-12-18T00:48:18;29.27;;;15.97;;
8652;SDS011;4364;52.426;9.424;2022-12-18T00:50:45;29.10;;;14.70;;
8652;SDS011;4364;52.426;9.424;2022-12-18T00:53:11;27.27;;;14.30;;
8652;SDS011;4364;52.426;9.424;2022-12-18T00:55:41;26.77;;;13.90;;
8652;SDS011;4364;52.426;9.424;2022-12-18T00:58:09;23.40;;;13.47;;
8652;SDS011;4364;52.426;9.424;2022-12-18T01:00:37;25.70;;;14.07;;
8652;SDS011;4364;52.426;9.424;2022-12-18T01:03:04;26.73;;;14.27;;
8652;SDS011;4364;52.426;9.424;2022-12-18T01:05:31;25.83;;;14.00;;
8652;SDS011;4364;52.426;9.424;2022-12-18T01:07:59;29.73;;;16.63;;
8652;SDS011;4364;52.426;9.424;2022-12-18T01:10:26;30.43;;;17.03;;
8652;SDS011;4364;52.426;9.424;2022-12-18T01:12:56;32.93;;;16.47;;
8652;SDS011;4364;52.426;9.424;2022-12-18T01:15:23;32.73;;;17.80;;
8652;SDS011;4364;52.426;9.424;2022-12-18T01:17:51;37.03;;;18.67;;
8652;SDS011;4364;52.426;9.424;2022-12-18T01:20:18;35.87;;;17.23;;
8652;SDS011;4364;52.426;9.424;2022-12-18T01:22:45;32.07;;;17.27;;
8652;SDS011;4364;52.426;9.424;2022-12-18T01:25:11;27.83;;;14.50;;
8652;SDS011;4364;52.426;9.424;2022-12-18T01:27:38;25.37;;;13.93;;
8652;SDS011;4364;52.426;9.424;2022-12-18T01:30:04;23.50;;;13.20;;
8652;SDS011;4364;52.426;9.424;2022-12-18T01:32:31;23.23;;;12.50;;
8652;SDS011;4364;52.426;9.424;2022-12-18T01:34:58;23.33;;;13.33;;
8652;SDS011;4364;52.426;9.424;2022-12-18T01:37:26;29.23;;;16.00;;
8652;SDS011;4364;52.426;9.424;2022-12-18T01:39:53;28.20;;;16.97;;
8652;SDS011;4364;52.426;9.424;2022-12-18T01:42:21;30.80;;;16.03;;
8652;SDS011;4364;52.426;9.424;2022-12-18T01:47:25;34.87;;;16.10;;
8652;SDS011;4364;52.426;9.424;2022-12-18T01:50:09;29.23;;;15.50;;
8652;SDS011;4364;52.426;9.424;2022-12-18T01:53:02;31.67;;;16.07;;
8652;SDS011;4364;52.426;9.424;2022-12-18T01:55:37;26.90;;;14.67;;
8652;SDS011;4364;52.426;9.424;2022-12-18T01:58:11;24.47;;;13.47;;
8652;SDS011;4364;52.426;9.424;2022-12-18T02:00:37;26.37;;;13.67;;
8652;SDS011;4364;52.426;9.424;2022-12-18T02:03:04;23.23;;;12.87;;
8652;SDS011;4364;52.426;9.424;2022-12-18T02:05:44;28.33;;;13.30;;
8652;SDS011;4364;52.426;9.424;2022-12-18T02:08:22;27.40;;;13.17;;
8652;SDS011;4364;52.426;9.424;2022-12-18T02:19:03;24.33;;;12.30;;
8652;SDS011;4364;52.426;9.424;2022-12-18T02:21:47;24.40;;;12.77;;
8652;SDS011;4364;52.426;9.424;2022-12-18T02:27:09;23.67;;;13.03;;
8652;SDS011;4364;52.426;9.424;2022-12-18T02:29:39;25.77;;;12.70;;
8652;SDS011;4364;52.426;9.424;2022-12-18T02:32:11;20.90;;;11.57;;
8652;SDS011;4364;52.426;9.424;2022-12-18T02:34:43;24.67;;;13.50;;
8652;SDS011;4364;52.426;9.424;2022-12-18T02:37:14;24.57;;;13.23;;
8652;SDS011;4364;52.426;9.424;2022-12-18T02:39:46;22.77;;;12.50;;
8652;SDS011;4364;52.426;9.424;2022-12-18T02:42:15;22.27;;;11.87;;
8652;SDS011;4364;52.426;9.424;2022-12-18T02:44:48;21.83;;;11.23;;
8652;SDS011;4364;52.426;9.424;2022-12-18T02:47:20;20.60;;;11.77;;
8652;SDS011;4364;52.426;9.424;2022-12-18T02:52:35;25.80;;;12.57;;
8652;SDS011;4364;52.426;9.424;2022-12-18T03:00:41;25.57;;;13.07;;
8652;SDS011;4364;52.426;9.424;2022-12-18T03:06:05;20.90;;;11.80;;
8652;SDS011;4364;52.426;9.424;2022-12-18T03:08:37;22.90;;;12.50;;
8652;SDS011;4364;52.426;9.424;2022-12-18T03:11:09;21.13;;;11.73;;
8652;SDS011;4364;52.426;9.424;2022-12-18T03:13:49;25.03;;;12.50;;
8652;SDS011;4364;52.426;9.424;2022-12-18T03:16:24;23.07;;;12.43;;
8652;SDS011;4364;52.426;9.424;2022-12-18T03:18:55;23.97;;;12.70;;
8652;SDS011;4364;52.426;9.424;2022-12-18T03:21:28;24.93;;;13.20;;
8652;SDS011;4364;52.426;9.424;2022-12-18T03:24:01;22.83;;;13.17;;
8652;SDS011;4364;52.426;9.424;2022-12-18T03:26:33;25.77;;;13.50;;
8652;SDS011;4364;52.426;9.424;2022-12-18T03:29:07;30.40;;;14.87;;
8652;SDS011;4364;52.426;9.424;2022-12-18T03:31:40;24.00;;;13.80;;
8652;SDS011;4364;52.426;9.424;2022-12-18T03:34:11;24.73;;;12.07;;
8652;SDS011;4364;52.426;9.424;2022-12-18T03:36:44;21.80;;;11.93;;
8652;SDS011;4364;52.426;9.424;2022-12-18T03:39:13;20.27;;;11.37;;
8652;SDS011;4364;52.426;9.424;2022-12-18T03:41:52;25.60;;;12.17;;
8652;SDS011;4364;52.426;9.424;2022-12-18T03:47:07;22.33;;;12.20;;
8652;SDS011;4364;52.426;9.424;2022-12-18T03:52:26;21.00;;;11.47;;
8652;SDS011;4364;52.426;9.424;2022-12-18T03:55:01;20.60;;;11.03;;
8652;SDS011;4364;52.426;9.424;2022-12-18T03:57:30;23.70;;;11.70;;
8652;SDS011;4364;52.426;9.424;2022-12-18T04:00:00;18.17;;;10.80;;
8652;SDS011;4364;52.426;9.424;2022-12-18T04:02:51;21.93;;;10.50;;
8652;SDS011;4364;52.426;9.424;2022-12-18T04:05:27;22.07;;;10.67;;
8652;SDS011;4364;52.426;9.424;2022-12-18T04:07:56;18.60;;;10.87;;
8652;SDS011;4364;52.426;9.424;2022-12-18T04:10:24;21.53;;;9.70;;
8652;SDS011;4364;52.426;9.424;2022-12-18T04:12:50;16.33;;;9.73;;
8652;SDS011;4364;52.426;9.424;2022-12-18T04:15:17;17.07;;;9.00;;
8652;SDS011;4364;52.426;9.424;2022-12-18T04:17:48;15.27;;;8.70;;
8652;SDS011;4364;52.426;9.424;2022-12-18T04:20:19;18.20;;;9.70;;
8652;SDS011;4364;52.426;9.424;2022-12-18T04:22:46;16.80;;;9.73;;
8652;SDS011;4364;52.426;9.424;2022-12-18T04:25:13;19.93;;;9.80;;
8652;SDS011;4364;52.426;9.424;2022-12-18T04:27:52;18.77;;;9.87;;
8652;SDS011;4364;52.426;9.424;2022-12-18T04:30:18;19.30;;;9.70;;
8652;SDS011;4364;52.426;9.424;2022-12-18T04:32:45;17.03;;;9.13;;
8652;SDS011;4364;52.426;9.424;2022-12-18T04:35:18;17.13;;;8.90;;
8652;SDS011;4364;52.426;9.424;2022-12-18T04:37:45;19.73;;;10.10;;
8652;SDS011;4364;52.426;9.424;2022-12-18T04:40:12;19.83;;;10.60;;
8652;SDS011;4364;52.426;9.424;2022-12-18T04:42:42;19.17;;;10.47;;
8652;SDS011;4364;52.426;9.424;2022-12-18T04:45:08;20.90;;;10.23;;
8652;SDS011;4364;52.426;9.424;2022-12-18T04:47:35;21.03;;;9.90;;
8652;SDS011;4364;52.426;9.424;2022-12-18T04:50:02;17.43;;;9.40;;
8652;SDS011;4364;52.426;9.424;2022-12-18T04:52:28;17.93;;;9.60;;
8652;SDS011;4364;52.426;9.424;2022-12-18T04:54:55;17.73;;;9.20;;
8652;SDS011;4364;52.426;9.424;2022-12-18T04:57:21;15.27;;;9.00;;
8652;SDS011;4364;52.426;9.424;2022-12-18T04:59:48;14.93;;;8.80;;
8652;SDS011;4364;52.426;9.424;2022-12-18T05:02:14;18.00;;;8.90;;
8652;SDS011;4364;52.426;9.424;2022-12-18T05:04:41;17.53;;;8.10;;
8652;SDS011;4364;52.426;9.424;2022-12-18T05:07:07;17.67;;;8.00;;
8652;SDS011;4364;52.426;9.424;2022-12-18T05:09:34;16.97;;;8.93;;
8652;SDS011;4364;52.426;9.424;2022-12-18T05:12:01;17.13;;;8.43;;
8652;SDS011;4364;52.426;9.424;2022-12-18T05:14:28;18.80;;;9.43;;
8652;SDS011;4364;52.426;9.424;2022-12-18T05:16:55;15.73;;;8.57;;
8652;SDS011;4364;52.426;9.424;2022-12-18T05:19:26;16.67;;;8.40;;
8652;SDS011;4364;52.426;9.424;2022-12-18T05:21:52;15.00;;;7.70;;
8652;SDS011;4364;52.426;9.424;2022-12-18T05:24:19;15.30;;;8.03;;
8652;SDS011;4364;52.426;9.424;2022-12-18T05:26:45;16.43;;;8.40;;
8652;SDS011;4364;52.426;9.424;2022-12-18T05:29:12;14.50;;;8.73;;
8652;SDS011;4364;52.426;9.424;2022-12-18T05:31:39;15.90;;;8.47;;
8652;SDS011;4364;52.426;9.424;2022-12-18T05:34:07;17.03;;;8.50;;
8652;SDS011;4364;52.426;9.424;2022-12-18T05:36:35;17.97;;;8.73;;
8652;SDS011;4364;52.426;9.424;2022-12-18T05:39:02;15.27;;;8.03;;
8652;SDS011;4364;52.426;9.424;2022-12-18T05:41:29;15.83;;;8.50;;
8652;SDS011;4364;52.426;9.424;2022-12-18T05:43:56;14.93;;;8.37;;
8652;SDS011;4364;52.426;9.424;2022-12-18T05:46:22;19.73;;;9.80;;
8652;SDS011;4364;52.426;9.424;2022-12-18T05:48:50;17.53;;;8.80;;
8652;SDS011;4364;52.426;9.424;2022-12-18T05:51:18;16.80;;;8.70;;
8652;SDS011;4364;52.426;9.424;2022-12-18T05:53:47;17.07;;;8.90;;
8652;SDS011;4364;52.426;9.424;2022-12-18T05:56:18;18.60;;;9.00;;
8652;SDS011;4364;52.426;9.424;2022-12-18T05:58:46;14.67;;;8.87;;
8652;SDS011;4364;52.426;9.424;2022-12-18T06:01:14;16.43;;;9.47;;
8652;SDS011;4364;52.426;9.424;2022-12-18T06:03:45;18.60;;;9.23;;
8652;SDS011;4364;52.426;9.424;2022-12-18T06:06:16;17.33;;;9.57;;
8652;SDS011;4364;52.426;9.424;2022-12-18T06:08:45;16.87;;;9.93;;
8652;SDS011;4364;52.426;9.424;2022-12-18T06:11:12;20.00;;;10.27;;
8652;SDS011;4364;52.426;9.424;2022-12-18T06:13:39;18.97;;;9.50;;
8652;SDS011;4364;52.426;9.424;2022-12-18T06:16:06;18.27;;;8.90;;
8652;SDS011;4364;52.426;9.424;2022-12-18T06:18:34;17.70;;;9.17;;
8652;SDS011;4364;52.426;9.424;2022-12-18T06:21:02;17.43;;;9.07;;
8652;SDS011;4364;52.426;9.424;2022-12-18T06:23:29;18.00;;;9.03;;
8652;SDS011;4364;52.426;9.424;2022-12-18T06:25:56;16.27;;;8.93;;
8652;SDS011;4364;52.426;9.424;2022-12-18T06:28:22;14.93;;;7.93;;
8652;SDS011;4364;52.426;9.424;2022-12-18T06:30:49;19.40;;;9.40;;
8652;SDS011;4364;52.426;9.424;2022-12-18T06:33:16;15.90;;;8.40;;
8652;SDS011;4364;52.426;9.424;2022-12-18T06:35:43;16.33;;;8.97;;
8652;SDS011;4364;52.426;9.424;2022-12-18T06:38:10;15.93;;;8.23;;
8652;SDS011;4364;52.426;9.424;2022-12-18T06:40:37;15.00;;;8.87;;
8652;SDS011;4364;52.426;9.424;2022-12-18T06:43:04;18.47;;;9.23;;
8652;SDS011;4364;52.426;9.424;2022-12-18T06:45:32;14.53;;;8.37;;
8652;SDS011;4364;52.426;9.424;2022-12-18T06:47:58;14.67;;;8.27;;
8652;SDS011;4364;52.426;9.424;2022-12-18T06:50:25;16.90;;;8.97;;
8652;SDS011;4364;52.426;9.424;2022-12-18T06:52:51;18.07;;;8.73;;
8652;SDS011;4364;52.426;9.424;2022-12-18T06:55:18;15.97;;;9.50;;
8652;SDS011;4364;52.426;9.424;2022-12-18T06:57:44;17.13;;;9.20;;
8652;SDS011;4364;52.426;9.424;2022-12-18T07:00:11;17.80;;;9.43;;
8652;SDS011;4364;52.426;9.424;2022-12-18T07:02:38;17.10;;;9.10;;
8652;SDS011;4364;52.426;9.424;2022-12-18T07:05:04;16.07;;;8.63;;
8652;SDS011;4364;52.426;9.424;2022-12-18T07:07:36;18.07;;;8.90;;
8652;SDS011;4364;52.426;9.424;2022-12-18T07:10:03;17.30;;;8.80;;
8652;SDS011;4364;52.426;9.424;2022-12-18T07:12:30;15.97;;;9.30;;
8652;SDS011;4364;52.426;9.424;2022-12-18T07:14:56;18.17;;;9.17;;
8652;SDS011;4364;52.426;9.424;2022-12-18T07:17:23;15.07;;;8.90;;
8652;SDS011;4364;52.426;9.424;2022-12-18T07:19:49;15.20;;;8.90;;
8652;SDS011;4364;52.426;9.424;2022-12-18T07:22:16;16.57;;;8.60;;
8652;SDS011;4364;52.426;9.424;2022-12-18T07:24:42;16.33;;;9.03;;
8652;SDS011;4364;52.426;9.424;2022-12-18T07:27:09;18.03;;;9.50;;
8652;SDS011;4364;52.426;9.424;2022-12-18T07:29:35;15.67;;;8.53;;
8652;SDS011;4364;52.426;9.424;2022-12-18T07:32:03;17.63;;;9.83;;
8652;SDS011;4364;52.426;9.424;2022-12-18T07:34:29;18.63;;;9.90;;
8652;SDS011;4364;52.426;9.424;2022-12-18T07:36:56;18.10;;;8.43;;
8652;SDS011;4364;52.426;9.424;2022-12-18T07:39:24;14.93;;;8.93;;
8652;SDS011;4364;52.426;9.424;2022-12-18T07:41:50;19.53;;;8.90;;
8652;SDS011;4364;52.426;9.424;2022-12-18T07:44:38;18.63;;;9.27;;
8652;SDS011;4364;52.426;9.424;2022-12-18T07:47:05;18.83;;;9.67;;
8652;SDS011;4364;52.426;9.424;2022-12-18T07:49:37;19.00;;;9.17;;
8652;SDS011;4364;52.426;9.424;2022-12-18T07:52:04;20.80;;;9.43;;
8652;SDS011;4364;52.426;9.424;2022-12-18T07:54:30;17.87;;;9.33;;
8652;SDS011;4364;52.426;9.424;2022-12-18T07:56:57;17.50;;;9.70;;
8652;SDS011;4364;52.426;9.424;2022-12-18T07:59:23;20.60;;;10.17;;
8652;SDS011;4364;52.426;9.424;2022-12-18T08:01:50;19.33;;;9.77;;
8652;SDS011;4364;52.426;9.424;2022-12-18T08:04:16;20.27;;;10.03;;
8652;SDS011;4364;52.426;9.424;2022-12-18T08:06:43;17.43;;;10.10;;
8652;SDS011;4364;52.426;9.424;2022-12-18T08:09:13;17.70;;;9.50;;
8652;SDS011;4364;52.426;9.424;2022-12-18T08:11:40;18.80;;;9.73;;
8652;SDS011;4364;52.426;9.424;2022-12-18T08:14:06;17.67;;;9.50;;
8652;SDS011;4364;52.426;9.424;2022-12-18T08:16:33;21.13;;;10.10;;
8652;SDS011;4364;52.426;9.424;2022-12-18T08:18:59;17.40;;;9.83;;
8652;SDS011;4364;52.426;9.424;2022-12-18T08:21:28;18.33;;;9.50;;
8652;SDS011;4364;52.426;9.424;2022-12-18T08:23:57;19.53;;;10.37;;
8652;SDS011;4364;52.426;9.424;2022-12-18T08:26:26;18.07;;;9.83;;
8652;SDS011;4364;52.426;9.424;2022-12-18T08:28:56;17.30;;;10.07;;
8652;SDS011;4364;52.426;9.424;2022-12-18T08:31:25;18.30;;;9.60;;
8652;SDS011;4364;52.426;9.424;2022-12-18T08:33:53;19.83;;;9.77;;
8652;SDS011;4364;52.426;9.424;2022-12-18T08:36:21;20.43;;;10.13;;
8652;SDS011;4364;52.426;9.424;2022-12-18T08:38:48;18.27;;;10.37;;
8652;SDS011;4364;52.426;9.424;2022-12-18T08:41:15;20.23;;;10.00;;
8652;SDS011;4364;52.426;9.424;2022-12-18T08:43:43;18.87;;;9.80;;
8652;SDS011;4364;52.426;9.424;2022-12-18T08:46:32;18.60;;;10.03;;
8652;SDS011;4364;52.426;9.424;2022-12-18T08:49:04;18.97;;;10.60;;
8652;SDS011;4364;52.426;9.424;2022-12-18T08:51:32;19.97;;;10.00;;
8652;SDS011;4364;52.426;9.424;2022-12-18T08:54:00;18.70;;;10.40;;
8652;SDS011;4364;52.426;9.424;2022-12-18T08:56:28;16.47;;;9.67;;
8652;SDS011;4364;52.426;9.424;2022-12-18T08:58:56;19.77;;;10.63;;
8652;SDS011;4364;52.426;9.424;2022-12-18T09:01:23;17.87;;;10.17;;
8652;SDS011;4364;52.426;9.424;2022-12-18T09:03:50;19.60;;;10.40;;
8652;SDS011;4364;52.426;9.424;2022-12-18T09:06:18;21.27;;;10.07;;
8652;SDS011;4364;52.426;9.424;2022-12-18T09:08:46;20.07;;;10.27;;
8652;SDS011;4364;52.426;9.424;2022-12-18T09:11:14;17.93;;;9.67;;
8652;SDS011;4364;52.426;9.424;2022-12-18T09:13:44;18.03;;;9.07;;
8652;SDS011;4364;52.426;9.424;2022-12-18T09:16:11;20.70;;;9.57;;
8652;SDS011;4364;52.426;9.424;2022-12-18T09:18:37;14.57;;;8.53;;
8652;SDS011;4364;52.426;9.424;2022-12-18T09:21:12;15.23;;;7.93;;
8652;SDS011;4364;52.426;9.424;2022-12-18T09:23:42;14.73;;;8.40;;
8652;SDS011;4364;52.426;9.424;2022-12-18T09:26:09;13.30;;;7.03;;
8652;SDS011;4364;52.426;9.424;2022-12-18T09:28:36;14.03;;;8.47;;
8652;SDS011;4364;52.426;9.424;2022-12-18T09:31:04;15.47;;;8.10;;
8652;SDS011;4364;52.426;9.424;2022-12-18T09:33:36;14.17;;;7.83;;
8652;SDS011;4364;52.426;9.424;2022-12-18T09:36:04;13.43;;;8.23;;
8652;SDS011;4364;52.426;9.424;2022-12-18T09:38:33;15.67;;;7.80;;
8652;SDS011;4364;52.426;9.424;2022-12-18T09:41:04;14.07;;;7.40;;
8652;SDS011;4364;52.426;9.424;2022-12-18T09:43:44;14.40;;;8.13;;
8652;SDS011;4364;52.426;9.424;2022-12-18T09:46:25;11.60;;;7.50;;
8652;SDS011;4364;52.426;9.424;2022-12-18T09:48:56;14.83;;;8.40;;
8652;SDS011;4364;52.426;9.424;2022-12-18T09:51:28;12.77;;;8.03;;
8652;SDS011;4364;52.426;9.424;2022-12-18T09:54:01;12.93;;;8.10;;
8652;SDS011;4364;52.426;9.424;2022-12-18T09:56:31;15.17;;;8.27;;
8652;SDS011;4364;52.426;9.424;2022-12-18T09:59:03;16.73;;;8.50;;
8652;SDS011;4364;52.426;9.424;2022-12-18T10:01:31;13.37;;;7.90;;
8652;SDS011;4364;52.426;9.424;2022-12-18T10:04:09;13.20;;;7.60;;
8652;SDS011;4364;52.426;9.424;2022-12-18T10:06:42;13.47;;;7.90;;
8652;SDS011;4364;52.426;9.424;2022-12-18T10:09:47;13.67;;;7.90;;
8652;SDS011;4364;52.426;9.424;2022-12-18T10:12:25;15.20;;;7.67;;
8652;SDS011;4364;52.426;9.424;2022-12-18T10:18:01;16.03;;;8.13;;
8652;SDS011;4364;52.426;9.424;2022-12-18T10:20:48;14.90;;;8.27;;
8652;SDS011;4364;52.426;9.424;2022-12-18T10:23:25;17.33;;;8.37;;
8652;SDS011;4364;52.426;9.424;2022-12-18T10:25:54;16.33;;;8.00;;
8652;SDS011;4364;52.426;9.424;2022-12-18T10:28:30;15.47;;;8.10;;
8652;SDS011;4364;52.426;9.424;2022-12-18T10:30:59;17.20;;;8.33;;
8652;SDS011;4364;52.426;9.424;2022-12-18T10:33:30;17.07;;;8.50;;
8652;SDS011;4364;52.426;9.424;2022-12-18T10:35:59;13.27;;;7.30;;
8652;SDS011;4364;52.426;9.424;2022-12-18T10:38:28;15.50;;;8.03;;
8652;SDS011;4364;52.426;9.424;2022-12-18T10:40:58;14.90;;;8.33;;
8652;SDS011;4364;52.426;9.424;2022-12-18T10:43:26;13.73;;;7.60;;
8652;SDS011;4364;52.426;9.424;2022-12-18T10:48:47;12.37;;;6.83;;
8652;SDS011;4364;52.426;9.424;2022-12-18T10:51:34;15.07;;;7.40;;
8652;SDS011;4364;52.426;9.424;2022-12-18T10:54:04;14.07;;;7.53;;
8652;SDS011;4364;52.426;9.424;2022-12-18T10:56:35;11.93;;;6.67;;
8652;SDS011;4364;52.426;9.424;2022-12-18T10:59:03;11.97;;;7.23;;
8652;SDS011;4364;52.426;9.424;2022-12-18T11:04:25;12.30;;;6.90;;
8652;SDS011;4364;52.426;9.424;2022-12-18T11:07:00;12.03;;;6.67;;
8652;SDS011;4364;52.426;9.424;2022-12-18T11:09:31;9.87;;;5.90;;
8652;SDS011;4364;52.426;9.424;2022-12-18T11:12:01;8.67;;;5.63;;
8652;SDS011;4364;52.426;9.424;2022-12-18T11:14:43;9.93;;;5.70;;
8652;SDS011;4364;52.426;9.424;2022-12-18T11:17:29;8.70;;;5.53;;
8652;SDS011;4364;52.426;9.424;2022-12-18T11:20:00;9.97;;;5.83;;
8652;SDS011;4364;52.426;9.424;2022-12-18T11:22:31;11.97;;;6.53;;
8652;SDS011;4364;52.426;9.424;2022-12-18T11:25:06;11.00;;;6.17;;
8652;SDS011;4364;52.426;9.424;2022-12-18T11:27:59;11.73;;;5.80;;
8652;SDS011;4364;52.426;9.424;2022-12-18T11:30:29;9.43;;;5.83;;
8652;SDS011;4364;52.426;9.424;2022-12-18T11:33:01;12.77;;;6.97;;
8652;SDS011;4364;52.426;9.424;2022-12-18T11:40:47;9.73;;;5.83;;
8652;SDS011;4364;52.426;9.424;2022-12-18T11:43:26;10.30;;;5.37;;
8652;SDS011;4364;52.426;9.424;2022-12-18T11:45:59;8.97;;;5.80;;
8652;SDS011;4364;52.426;9.424;2022-12-18T11:48:32;11.93;;;6.80;;
8652;SDS011;4364;52.426;9.424;2022-12-18T11:51:05;11.83;;;6.23;;
8652;SDS011;4364;52.426;9.424;2022-12-18T11:53:39;10.97;;;6.57;;
8652;SDS011;4364;52.426;9.424;2022-12-18T12:05:01;9.00;;;5.67;;
8652;SDS011;4364;52.426;9.424;2022-12-18T12:18:51;9.77;;;5.03;;
8652;SDS011;4364;52.426;9.424;2022-12-18T12:26:33;8.10;;;5.23;;
8652;SDS011;4364;52.426;9.424;2022-12-18T12:29:28;8.20;;;5.00;;
8652;SDS011;4364;52.426;9.424;2022-12-18T12:32:02;8.57;;;4.73;;
8652;SDS011;4364;52.426;9.424;2022-12-18T12:34:49;9.67;;;4.57;;
8652;SDS011;4364;52.426;9.424;2022-12-18T12:37:33;7.93;;;4.70;;
8652;SDS011;4364;52.426;9.424;2022-12-18T12:40:16;7.10;;;4.63;;
8652;SDS011;4364;52.426;9.424;2022-12-18T12:43:10;10.43;;;4.87;;
8652;SDS011;4364;52.426;9.424;2022-12-18T12:45:49;13.63;;;6.30;;
8652;SDS011;4364;52.426;9.424;2022-12-18T12:51:18;8.43;;;4.57;;
8652;SDS011;4364;52.426;9.424;2022-12-18T12:53:58;6.73;;;4.60;;
8652;SDS011;4364;52.426;9.424;2022-12-18T12:56:47;8.20;;;5.27;;
8652;SDS011;4364;52.426;9.424;2022-12-18T12:59:28;9.73;;;5.03;;
8652;SDS011;4364;52.426;9.424;2022-12-18T13:01:59;6.97;;;4.70;;
8652;SDS011;4364;52.426;9.424;2022-12-18T13:04:38;9.80;;;4.87;;
8652;SDS011;4364;52.426;9.424;2022-12-18T13:07:18;7.30;;;4.37;;
8652;SDS011;4364;52.426;9.424;2022-12-18T13:12:53;7.03;;;4.07;;
8652;SDS011;4364;52.426;9.424;2022-12-18T13:29:58;7.47;;;4.00;;
8652;SDS011;4364;52.426;9.424;2022-12-18T13:41:26;5.73;;;3.93;;
8652;SDS011;4364;52.426;9.424;2022-12-18T13:48:12;7.23;;;3.90;;
8652;SDS011;4364;52.426;9.424;2022-12-18T13:50:42;8.77;;;4.03;;
8652;SDS011;4364;52.426;9.424;2022-12-18T13:53:24;8.23;;;3.73;;
8652;SDS011;4364;52.426;9.424;2022-12-18T13:55:56;7.70;;;3.67;;
8652;SDS011;4364;52.426;9.424;2022-12-18T13:58:23;6.03;;;3.87;;
8652;SDS011;4364;52.426;9.424;2022-12-18T14:00:49;8.63;;;4.30;;
8652;SDS011;4364;52.426;9.424;2022-12-18T14:03:18;7.40;;;3.73;;
8652;SDS011;4364;52.426;9.424;2022-12-18T14:06:05;4.60;;;3.57;;
8652;SDS011;4364;52.426;9.424;2022-12-18T14:08:35;8.03;;;4.63;;
8652;SDS011;4364;52.426;9.424;2022-12-18T14:11:06;7.30;;;4.00;;
8652;SDS011;4364;52.426;9.424;2022-12-18T14:13:37;8.13;;;3.80;;
8652;SDS011;4364;52.426;9.424;2022-12-18T14:16:07;6.90;;;4.40;;
8652;SDS011;4364;52.426;9.424;2022-12-18T14:21:40;8.13;;;3.90;;
8652;SDS011;4364;52.426;9.424;2022-12-18T14:24:16;8.40;;;4.50;;
8652;SDS011;4364;52.426;9.424;2022-12-18T14:26:47;6.90;;;4.67;;
8652;SDS011;4364;52.426;9.424;2022-12-18T14:31:50;11.37;;;5.23;;
8652;SDS011;4364;52.426;9.424;2022-12-18T14:34:33;7.70;;;4.60;;
8652;SDS011;4364;52.426;9.424;2022-12-18T14:37:00;5.67;;;3.93;;
8652;SDS011;4364;52.426;9.424;2022-12-18T14:39:26;8.47;;;4.77;;
8652;SDS011;4364;52.426;9.424;2022-12-18T14:41:53;8.77;;;4.57;;
8652;SDS011;4364;52.426;9.424;2022-12-18T14:44:19;9.07;;;4.90;;
8652;SDS011;4364;52.426;9.424;2022-12-18T14:46:47;9.63;;;5.33;;
8652;SDS011;4364;52.426;9.424;2022-12-18T14:49:18;8.80;;;5.43;;
8652;SDS011;4364;52.426;9.424;2022-12-18T14:51:59;9.97;;;5.90;;
8652;SDS011;4364;52.426;9.424;2022-12-18T14:54:28;9.63;;;6.03;;
8652;SDS011;4364;52.426;9.424;2022-12-18T14:59:47;9.00;;;5.87;;
8652;SDS011;4364;52.426;9.424;2022-12-18T15:04:45;11.67;;;6.77;;
8652;SDS011;4364;52.426;9.424;2022-12-18T15:07:21;15.17;;;6.60;;
8652;SDS011;4364;52.426;9.424;2022-12-18T15:12:36;13.60;;;7.23;;
8652;SDS011;4364;52.426;9.424;2022-12-18T15:21:35;11.87;;;7.07;;
8652;SDS011;4364;52.426;9.424;2022-12-18T15:23:36;15.10;;;7.17;;
8652;SDS011;4364;52.426;9.424;2022-12-18T15:26:11;14.20;;;7.73;;
8652;SDS011;4364;52.426;9.424;2022-12-18T15:31:22;13.70;;;7.67;;
8652;SDS011;4364;52.426;9.424;2022-12-18T15:36:33;17.33;;;9.00;;
8652;SDS011;4364;52.426;9.424;2022-12-18T15:39:02;17.67;;;8.77;;
8652;SDS011;4364;52.426;9.424;2022-12-18T15:41:32;12.70;;;7.80;;
8652;SDS011;4364;52.426;9.424;2022-12-18T15:44:01;14.63;;;8.20;;
8652;SDS011;4364;52.426;9.424;2022-12-18T15:46:29;13.43;;;8.30;;
8652;SDS011;4364;52.426;9.424;2022-12-18T15:48:57;14.13;;;7.57;;
8652;SDS011;4364;52.426;9.424;2022-12-18T15:51:29;14.77;;;8.10;;
8652;SDS011;4364;52.426;9.424;2022-12-18T15:54:00;14.87;;;7.93;;
8652;SDS011;4364;52.426;9.424;2022-12-18T15:56:32;14.23;;;7.53;;
8652;SDS011;4364;52.426;9.424;2022-12-18T15:59:18;13.47;;;8.03;;
8652;SDS011;4364;52.426;9.424;2022-12-18T16:01:47;12.30;;;7.97;;
8652;SDS011;4364;52.426;9.424;2022-12-18T16:04:16;13.03;;;6.93;;
8652;SDS011;4364;52.426;9.424;2022-12-18T16:06:46;15.57;;;8.33;;
8652;SDS011;4364;52.426;9.424;2022-12-18T16:09:34;14.77;;;8.00;;
8652;SDS011;4364;52.426;9.424;2022-12-18T16:12:01;14.23;;;7.10;;
8652;SDS011;4364;52.426;9.424;2022-12-18T16:14:29;11.80;;;6.83;;
8652;SDS011;4364;52.426;9.424;2022-12-18T16:16:57;11.90;;;6.83;;
8652;SDS011;4364;52.426;9.424;2022-12-18T16:19:28;12.63;;;6.60;;
8652;SDS011;4364;52.426;9.424;2022-12-18T16:21:56;14.57;;;7.20;;
8652;SDS011;4364;52.426;9.424;2022-12-18T16:24:26;12.80;;;7.53;;
8652;SDS011;4364;52.426;9.424;2022-12-18T16:26:55;14.77;;;7.20;;
8652;SDS011;4364;52.426;9.424;2022-12-18T16:29:25;11.77;;;7.83;;
8652;SDS011;4364;52.426;9.424;2022-12-18T16:31:54;12.80;;;7.23;;
8652;SDS011;4364;52.426;9.424;2022-12-18T16:34:23;9.87;;;6.37;;
8652;SDS011;4364;52.426;9.424;2022-12-18T16:36:55;15.00;;;7.33;;
8652;SDS011;4364;52.426;9.424;2022-12-18T16:39:31;14.00;;;7.13;;
8652;SDS011;4364;52.426;9.424;2022-12-18T16:42:00;12.87;;;7.00;;
8652;SDS011;4364;52.426;9.424;2022-12-18T16:44:32;12.90;;;6.97;;
8652;SDS011;4364;52.426;9.424;2022-12-18T16:46:59;14.20;;;7.47;;
8652;SDS011;4364;52.426;9.424;2022-12-18T16:49:28;12.50;;;6.97;;
8652;SDS011;4364;52.426;9.424;2022-12-18T16:51:55;9.60;;;6.43;;
8652;SDS011;4364;52.426;9.424;2022-12-18T16:54:22;11.93;;;7.07;;
8652;SDS011;4364;52.426;9.424;2022-12-18T16:56:49;12.90;;;7.00;;
8652;SDS011;4364;52.426;9.424;2022-12-18T16:59:17;11.17;;;6.70;;
8652;SDS011;4364;52.426;9.424;2022-12-18T17:01:45;11.07;;;6.17;;
8652;SDS011;4364;52.426;9.424;2022-12-18T17:04:12;11.10;;;6.33;;
8652;SDS011;4364;52.426;9.424;2022-12-18T17:06:40;10.53;;;6.23;;
8652;SDS011;4364;52.426;9.424;2022-12-18T17:09:12;11.27;;;6.57;;
8652;SDS011;4364;52.426;9.424;2022-12-18T17:11:43;8.40;;;5.80;;
8652;SDS011;4364;52.426;9.424;2022-12-18T17:14:11;11.53;;;6.53;;
8652;SDS011;4364;52.426;9.424;2022-12-18T17:16:40;10.00;;;6.03;;
8652;SDS011;4364;52.426;9.424;2022-12-18T17:19:07;11.37;;;6.60;;
8652;SDS011;4364;52.426;9.424;2022-12-18T17:21:42;12.93;;;6.93;;
8652;SDS011;4364;52.426;9.424;2022-12-18T17:24:10;11.97;;;6.27;;
8652;SDS011;4364;52.426;9.424;2022-12-18T17:26:37;9.97;;;7.03;;
8652;SDS011;4364;52.426;9.424;2022-12-18T17:29:03;11.43;;;6.90;;